createdAt,value
2018-01-25T00:00:00.429Z,999.23
2018-01-25T00:01:00.406Z,999.28
2018-01-25T00:02:00.383Z,999.26
2018-01-25T00:03:00.365Z,999.29
2018-01-25T00:04:00.339Z,999.3
2018-01-25T00:05:00.319Z,999.34
2018-01-25T00:06:00.301Z,999.3
2018-01-25T00:07:00.275Z,999.31
2018-01-25T00:08:00.252Z,999.39
2018-01-25T00:09:00.228Z,999.22
2018-01-25T00:10:00.208Z,999.28
2018-01-25T00:11:00.186Z,999.25
2018-01-25T00:12:00.168Z,999.31
2018-01-25T00:13:00.141Z,999.3
2018-01-25T00:14:00.116Z,999.14
2018-01-25T00:15:00.121Z,999.32
2018-01-25T00:16:00.073Z,999.16
2018-01-25T00:17:00.049Z,999.35
2018-01-25T00:18:00.031Z,999.29
2018-01-25T00:19:00.007Z,999.33
2018-01-25T00:19:59.982Z,999.26
2018-01-25T00:20:59.960Z,999.2
2018-01-25T00:21:59.939Z,999.29
2018-01-25T00:22:59.916Z,999.32
2018-01-25T00:23:59.894Z,999.34
2018-01-25T00:24:59.873Z,999.29
2018-01-25T00:25:59.849Z,999.32
2018-01-25T00:26:59.827Z,999.26
2018-01-25T00:27:59.804Z,999.3
2018-01-25T00:28:59.782Z,999.24
2018-01-25T00:29:59.760Z,999.25
2018-01-25T00:30:59.737Z,999.22
2018-01-25T00:31:59.714Z,999.23
2018-01-25T00:32:59.692Z,999.35
2018-01-25T00:33:59.671Z,999.33
2018-01-25T00:34:59.648Z,999.25
2018-01-25T00:35:59.627Z,999.3
2018-01-25T00:36:59.604Z,999.31
2018-01-25T00:37:59.582Z,999.25
2018-01-25T00:38:59.558Z,999.27
2018-01-25T00:39:59.536Z,999.34
2018-01-25T00:40:59.514Z,999.36
2018-01-25T00:41:59.494Z,999.27
2018-01-25T00:42:59.469Z,999.44
2018-01-25T00:43:59.448Z,999.38
2018-01-25T00:44:59.424Z,999.34
2018-01-25T00:45:59.401Z,999.41
2018-01-25T00:46:59.406Z,999.51
2018-01-25T00:47:59.357Z,999.47
2018-01-25T00:48:59.334Z,999.46
2018-01-25T00:49:59.311Z,999.51
2018-01-25T00:50:59.289Z,999.49
2018-01-25T00:51:59.266Z,999.52
2018-01-25T00:52:59.246Z,999.53
2018-01-25T00:53:59.220Z,999.57
2018-01-25T00:54:59.198Z,999.47
2018-01-25T00:55:59.178Z,999.57
2018-01-25T00:56:59.154Z,999.47
2018-01-25T00:57:59.132Z,999.45
2018-01-25T00:58:59.108Z,999.51
2018-01-25T00:59:59.085Z,999.48
2018-01-25T01:00:59.061Z,999.38
2018-01-25T01:01:59.039Z,999.43
2018-01-25T01:02:59.016Z,999.53
2018-01-25T01:03:58.995Z,999.53
2018-01-25T01:04:58.973Z,999.54
2018-01-25T01:05:58.948Z,999.51
2018-01-25T01:06:58.926Z,999.57
2018-01-25T01:07:58.910Z,999.66
2018-01-25T01:08:58.881Z,999.78
2018-01-25T01:09:58.939Z,999.98
2018-01-25T01:10:58.835Z,1000.28
2018-01-25T01:11:58.813Z,1000.82
2018-01-25T01:12:58.789Z,1000.46
2018-01-25T01:13:58.765Z,1000.35
2018-01-25T01:14:58.742Z,1000.27
2018-01-25T01:15:58.719Z,1000.57
2018-01-25T01:16:58.693Z,1000.44
2018-01-25T01:17:58.669Z,1000.45
2018-01-25T01:18:58.645Z,1000.6
2018-01-25T01:19:58.625Z,1000.51
2018-01-25T01:20:58.597Z,1000.64
2018-01-25T01:21:58.572Z,1000.56
2018-01-25T01:22:58.549Z,1000.6
2018-01-25T01:23:58.524Z,1000.48
2018-01-25T01:24:58.498Z,1000.56
2018-01-25T01:25:58.475Z,1000.64
2018-01-25T01:26:58.449Z,1000.59
2018-01-25T01:27:58.424Z,1000.64
2018-01-25T01:28:58.401Z,1000.55
2018-01-25T01:29:58.377Z,1000.6
2018-01-25T01:30:58.350Z,1000.56
2018-01-25T01:31:58.325Z,1000.55
2018-01-25T01:32:58.301Z,1000.55
2018-01-25T01:33:58.276Z,1000.56
2018-01-25T01:34:58.251Z,1000.48
2018-01-25T01:35:58.224Z,1000.51
2018-01-25T01:36:58.199Z,1000.54
2018-01-25T01:37:58.175Z,1000.51
2018-01-25T01:38:58.150Z,1000.53
2018-01-25T01:39:58.125Z,1000.53
2018-01-25T01:40:58.099Z,1000.53
2018-01-25T01:41:58.074Z,1000.56
2018-01-25T01:42:58.048Z,1000.58
2018-01-25T01:43:58.024Z,1000.59
2018-01-25T01:44:57.997Z,1000.65
2018-01-25T01:45:57.972Z,1000.67
2018-01-25T01:46:57.947Z,1000.76
2018-01-25T01:47:57.921Z,1000.77
2018-01-25T01:48:57.896Z,1000.88
2018-01-25T01:49:57.871Z,1000.8
2018-01-25T01:50:57.846Z,1000.81
2018-01-25T01:51:57.823Z,1000.89
2018-01-25T01:52:57.798Z,1000.84
2018-01-25T01:53:57.771Z,1000.85
2018-01-25T01:54:57.746Z,1000.82
2018-01-25T01:55:57.719Z,1000.78
2018-01-25T01:56:57.694Z,1000.8
2018-01-25T01:57:57.669Z,1000.89
2018-01-25T01:58:57.642Z,1000.81
2018-01-25T01:59:57.616Z,1000.82
2018-01-25T02:00:57.593Z,1000.8
2018-01-25T02:01:57.567Z,1000.83
2018-01-25T02:02:57.541Z,1000.8
2018-01-25T02:03:57.514Z,1000.88
2018-01-25T02:04:57.491Z,1000.84
2018-01-25T02:05:57.467Z,1000.87
2018-01-25T02:06:57.448Z,1000.93
2018-01-25T02:07:57.414Z,1000.63
2018-01-25T02:08:57.387Z,1000.8
2018-01-25T02:09:57.361Z,1000.95
2018-01-25T02:10:57.336Z,1000.9
2018-01-25T02:11:57.311Z,1000.93
2018-01-25T02:12:57.287Z,1000.96
2018-01-25T02:13:57.260Z,1001.05
2018-01-25T02:14:57.234Z,1001.01
2018-01-25T02:15:57.209Z,1000.97
2018-01-25T02:16:57.184Z,1000.98
2018-01-25T02:17:57.158Z,1001.02
2018-01-25T02:18:57.132Z,1001.06
2018-01-25T02:19:57.107Z,1001.01
2018-01-25T02:20:57.081Z,1001.23
2018-01-25T02:21:57.055Z,1001.09
2018-01-25T02:22:57.030Z,1001.12
2018-01-25T02:23:57.004Z,1001.1
2018-01-25T02:24:56.976Z,1001.13
2018-01-25T02:25:56.952Z,1001.13
2018-01-25T02:26:56.926Z,1001.17
2018-01-25T02:27:56.906Z,1001.18
2018-01-25T02:28:56.874Z,1001.22
2018-01-25T02:29:56.847Z,1001.19
2018-01-25T02:30:56.827Z,1001.17
2018-01-25T02:31:56.797Z,1001.23
2018-01-25T02:32:56.772Z,1001.3
2018-01-25T02:33:56.745Z,1001.23
2018-01-25T02:34:56.720Z,1001.27
2018-01-25T02:35:56.694Z,1001.24
2018-01-25T02:36:56.669Z,1001.23
2018-01-25T02:37:56.642Z,1001.19
2018-01-25T02:38:56.617Z,1001.27
2018-01-25T02:39:56.590Z,1001.26
2018-01-25T02:40:56.564Z,1001.2
2018-01-25T02:41:56.538Z,1001.24
2018-01-25T02:42:56.512Z,1001.24
2018-01-25T02:43:56.487Z,1001.23
2018-01-25T02:44:56.461Z,1001.14
2018-01-25T02:45:56.435Z,1001.18
2018-01-25T02:46:56.412Z,1001.17
2018-01-25T02:47:56.383Z,1001.19
2018-01-25T02:48:56.358Z,1001.18
2018-01-25T02:49:56.334Z,1001.23
2018-01-25T02:50:56.305Z,1001.15
2018-01-25T02:51:56.281Z,1001.22
2018-01-25T02:52:56.254Z,1001.27
2018-01-25T02:53:56.228Z,1001.26
2018-01-25T02:54:56.203Z,1001.3
2018-01-25T02:55:56.177Z,1001.26
2018-01-25T02:56:56.150Z,1001.23
2018-01-25T02:57:56.124Z,1001.3
2018-01-25T02:58:56.101Z,1001.29
2018-01-25T02:59:56.078Z,1001.31
2018-01-25T03:00:56.048Z,1001.35
2018-01-25T03:01:56.022Z,1001.37
2018-01-25T03:02:55.996Z,1001.39
2018-01-25T03:03:55.970Z,1001.37
2018-01-25T03:04:55.943Z,1001.23
2018-01-25T03:05:55.917Z,1001.31
2018-01-25T03:06:55.892Z,1001.33
2018-01-25T03:07:55.869Z,1001.35
2018-01-25T03:08:55.839Z,1001.29
2018-01-25T03:09:55.813Z,1001.39
2018-01-25T03:10:55.788Z,1001.37
2018-01-25T03:11:55.761Z,1001.42
2018-01-25T03:12:55.734Z,1001.39
2018-01-25T03:13:55.710Z,1001.47
2018-01-25T03:14:55.684Z,1001.39
2018-01-25T03:15:55.657Z,1001.48
2018-01-25T03:16:55.631Z,1001.43
2018-01-25T03:17:55.604Z,1001.45
2018-01-25T03:18:55.578Z,1001.46
2018-01-25T03:19:55.552Z,1001.45
2018-01-25T03:20:55.527Z,1001.45
2018-01-25T03:21:55.499Z,1001.54
2018-01-25T03:22:55.475Z,1001.55
2018-01-25T03:23:55.500Z,1001.62
2018-01-25T03:24:55.421Z,1001.64
2018-01-25T03:25:55.396Z,1001.59
2018-01-25T03:26:55.371Z,1001.67
2018-01-25T03:27:55.344Z,1001.65
2018-01-25T03:28:55.321Z,1001.64
2018-01-25T03:29:55.292Z,1001.63
2018-01-25T03:30:55.265Z,1001.58
2018-01-25T03:31:55.239Z,1001.57
2018-01-25T03:32:55.214Z,1001.67
2018-01-25T03:33:55.185Z,1001.62
2018-01-25T03:34:55.159Z,1001.59
2018-01-25T03:35:55.134Z,1001.62
2018-01-25T03:36:55.108Z,1001.63
2018-01-25T03:37:55.079Z,1001.65
2018-01-25T03:38:55.057Z,1001.66
2018-01-25T03:39:55.029Z,1001.76
2018-01-25T03:40:55.002Z,1001.65
2018-01-25T03:41:54.975Z,1001.72
2018-01-25T03:42:54.950Z,1001.76
2018-01-25T03:43:54.925Z,1001.77
2018-01-25T03:44:54.898Z,1001.81
2018-01-25T03:45:54.874Z,1001.84
2018-01-25T03:46:54.844Z,1001.82
2018-01-25T03:47:54.818Z,1001.9
2018-01-25T03:48:54.792Z,1001.84
2018-01-25T03:49:54.765Z,1001.88
2018-01-25T03:50:54.741Z,1001.88
2018-01-25T03:51:54.714Z,1001.81
2018-01-25T03:52:54.689Z,1001.84
2018-01-25T03:53:54.666Z,1001.83
2018-01-25T03:54:54.635Z,1001.86
2018-01-25T03:55:54.608Z,1001.86
2018-01-25T03:56:54.581Z,1001.87
2018-01-25T03:57:54.556Z,1001.89
2018-01-25T03:58:54.532Z,1001.93
2018-01-25T03:59:54.502Z,1001.89
2018-01-25T04:00:54.477Z,1001.9
2018-01-25T04:01:54.452Z,1001.92
2018-01-25T04:02:54.425Z,1001.93
2018-01-25T04:03:54.399Z,1001.92
2018-01-25T04:04:54.371Z,1001.88
2018-01-25T04:05:54.347Z,1001.89
2018-01-25T04:06:54.321Z,1001.86
2018-01-25T04:07:54.294Z,1001.92
2018-01-25T04:08:54.267Z,1001.91
2018-01-25T04:09:54.241Z,1001.93
2018-01-25T04:10:54.214Z,1001.96
2018-01-25T04:11:54.188Z,1001.83
2018-01-25T04:12:54.162Z,1001.77
2018-01-25T04:13:54.141Z,1001.75
2018-01-25T04:14:54.110Z,1001.83
2018-01-25T04:15:54.087Z,1001.87
2018-01-25T04:16:54.061Z,1001.91
2018-01-25T04:17:54.030Z,1001.97
2018-01-25T04:18:54.008Z,1001.98
2018-01-25T04:19:53.978Z,1002.06
2018-01-25T04:20:53.952Z,1002.09
2018-01-25T04:21:53.927Z,1002.1
2018-01-25T04:22:53.900Z,1002.13
2018-01-25T04:23:53.873Z,1002.12
2018-01-25T04:24:53.846Z,1002.22
2018-01-25T04:25:53.820Z,1002.25
2018-01-25T04:26:53.793Z,1002.23
2018-01-25T04:27:53.768Z,1002.18
2018-01-25T04:28:53.742Z,1002.17
2018-01-25T04:29:53.714Z,1002.18
2018-01-25T04:30:53.688Z,1002.18
2018-01-25T04:31:53.664Z,1002.15
2018-01-25T04:32:53.635Z,1002.1
2018-01-25T04:33:53.608Z,1002.15
2018-01-25T04:34:53.583Z,1002.12
2018-01-25T04:35:53.558Z,1002.15
2018-01-25T04:36:53.534Z,1002.1
2018-01-25T04:37:53.505Z,1002.06
2018-01-25T04:38:53.478Z,1002.04
2018-01-25T04:39:53.452Z,1002
2018-01-25T04:40:53.425Z,1001.9
2018-01-25T04:41:53.403Z,1001.92
2018-01-25T04:42:53.373Z,1001.91
2018-01-25T04:43:53.446Z,1001.94
2018-01-25T04:44:53.320Z,1001.93
2018-01-25T04:45:53.294Z,1001.99
2018-01-25T04:46:53.266Z,1002.06
2018-01-25T04:47:53.240Z,1002.04
2018-01-25T04:48:53.213Z,1002.06
2018-01-25T04:49:53.187Z,1002.06
2018-01-25T04:50:53.160Z,1002.07
2018-01-25T04:51:53.138Z,1002.07
2018-01-25T04:52:53.108Z,1002.04
2018-01-25T04:53:53.091Z,1002.09
2018-01-25T04:54:53.056Z,1002.05
2018-01-25T04:55:53.030Z,1002.1
2018-01-25T04:56:53.002Z,1002.13
2018-01-25T04:57:52.976Z,1002.09
2018-01-25T04:58:52.951Z,1002.05
2018-01-25T04:59:52.922Z,1002.06
2018-01-25T05:00:52.896Z,1002.1
2018-01-25T05:01:52.870Z,1002.04
2018-01-25T05:02:52.843Z,1002.02
2018-01-25T05:03:52.820Z,1001.99
2018-01-25T05:04:52.791Z,1002.02
2018-01-25T05:05:52.765Z,1002.01
2018-01-25T05:06:52.738Z,1001.99
2018-01-25T05:07:52.712Z,1002.06
2018-01-25T05:08:52.685Z,1002.05
2018-01-25T05:09:52.657Z,1002.02
2018-01-25T05:10:52.633Z,1001.93
2018-01-25T05:11:52.606Z,1002.01
2018-01-25T05:12:52.578Z,1002.05
2018-01-25T05:13:52.552Z,1002.04
2018-01-25T05:14:52.527Z,1002.08
2018-01-25T05:15:52.500Z,1002.05
2018-01-25T05:16:52.474Z,1002.05
2018-01-25T05:17:52.447Z,1002
2018-01-25T05:18:52.421Z,1001.96
2018-01-25T05:19:52.394Z,1001.91
2018-01-25T05:20:52.368Z,1001.92
2018-01-25T05:21:52.340Z,1001.89
2018-01-25T05:22:52.314Z,1001.89
2018-01-25T05:23:52.288Z,1001.98
2018-01-25T05:24:52.260Z,1002.01
2018-01-25T05:25:52.234Z,1002.07
2018-01-25T05:26:52.208Z,1002.07
2018-01-25T05:27:52.182Z,1002.08
2018-01-25T05:28:52.158Z,1002.18
2018-01-25T05:29:52.129Z,1002.17
2018-01-25T05:30:52.107Z,1002.13
2018-01-25T05:31:52.077Z,1002.06
2018-01-25T05:32:52.051Z,1002.02
2018-01-25T05:33:52.024Z,1002.08
2018-01-25T05:34:51.996Z,1002.09
2018-01-25T05:35:51.971Z,1002.09
2018-01-25T05:36:51.944Z,1002.09
2018-01-25T05:37:51.919Z,1002.04
2018-01-25T05:38:51.891Z,1002.05
2018-01-25T05:39:51.866Z,1002.07
2018-01-25T05:40:51.838Z,1002.02
2018-01-25T05:41:51.812Z,1002.03
2018-01-25T05:42:51.786Z,1002.08
2018-01-25T05:43:51.759Z,1002.11
2018-01-25T05:44:51.732Z,1002.04
2018-01-25T05:45:51.706Z,1002.08
2018-01-25T05:46:51.680Z,1001.99
2018-01-25T05:47:51.654Z,1002
2018-01-25T05:48:51.628Z,1002
2018-01-25T05:49:51.600Z,1002.01
2018-01-25T05:50:51.574Z,1001.98
2018-01-25T05:51:51.550Z,1001.95
2018-01-25T05:52:51.520Z,1001.96
2018-01-25T05:53:51.495Z,1002.01
2018-01-25T05:54:51.468Z,1001.97
2018-01-25T05:55:51.443Z,1002.03
2018-01-25T05:56:51.417Z,1001.91
2018-01-25T05:57:51.392Z,1001.91
2018-01-25T05:58:51.363Z,1001.9
2018-01-25T05:59:51.340Z,1001.89
2018-01-25T06:00:51.309Z,1001.9
2018-01-25T06:01:51.283Z,1001.92
2018-01-25T06:02:51.257Z,1001.88
2018-01-25T06:03:51.230Z,1001.91
2018-01-25T06:04:51.205Z,1001.88
2018-01-25T06:05:51.181Z,1001.91
2018-01-25T06:06:51.153Z,1001.91
2018-01-25T06:07:51.124Z,1001.93
2018-01-25T06:08:51.098Z,1001.87
2018-01-25T06:09:51.078Z,1001.88
2018-01-25T06:10:51.046Z,1001.85
2018-01-25T06:11:51.021Z,1001.92
2018-01-25T06:12:50.994Z,1001.96
2018-01-25T06:13:50.969Z,1002.02
2018-01-25T06:14:50.943Z,1002.04
2018-01-25T06:15:50.915Z,1002.05
2018-01-25T06:16:50.888Z,1002.02
2018-01-25T06:17:50.862Z,1001.99
2018-01-25T06:18:50.835Z,1001.98
2018-01-25T06:19:50.809Z,1001.95
2018-01-25T06:20:50.785Z,1001.99
2018-01-25T06:21:50.757Z,1001.98
2018-01-25T06:22:50.731Z,1001.97
2018-01-25T06:23:50.705Z,1001.97
2018-01-25T06:24:50.678Z,1001.97
2018-01-25T06:25:50.652Z,1002
2018-01-25T06:26:50.625Z,1001.98
2018-01-25T06:27:50.599Z,1002.09
2018-01-25T06:28:50.572Z,1002.13
2018-01-25T06:29:50.546Z,1002.04
2018-01-25T06:30:50.519Z,1002.03
2018-01-25T06:31:50.492Z,1001.94
2018-01-25T06:32:50.467Z,1001.87
2018-01-25T06:33:50.439Z,1001.83
2018-01-25T06:34:50.416Z,1001.86
2018-01-25T06:35:50.387Z,1001.92
2018-01-25T06:36:50.360Z,1002.03
2018-01-25T06:37:50.334Z,1002.11
2018-01-25T06:38:50.311Z,1002.16
2018-01-25T06:39:50.283Z,1002.17
2018-01-25T06:40:50.256Z,1002.21
2018-01-25T06:41:50.229Z,1002.21
2018-01-25T06:42:50.206Z,1002.23
2018-01-25T06:43:50.176Z,1002.23
2018-01-25T06:44:50.151Z,1002.19
2018-01-25T06:45:50.124Z,1002.21
2018-01-25T06:46:50.098Z,1002.23
2018-01-25T06:47:50.071Z,1002.31
2018-01-25T06:48:50.045Z,1002.29
2018-01-25T06:49:50.019Z,1002.27
2018-01-25T06:50:49.992Z,1002.31
2018-01-25T06:51:49.966Z,1002.24
2018-01-25T06:52:50.058Z,1002.28
2018-01-25T06:53:49.979Z,1002.25
2018-01-25T06:54:49.887Z,1002.3
2018-01-25T06:55:49.859Z,1002.34
2018-01-25T06:56:49.833Z,1002.34
2018-01-25T06:57:49.807Z,1002.32
2018-01-25T06:58:49.784Z,1002.34
2018-01-25T06:59:49.754Z,1002.36
2018-01-25T07:00:49.736Z,1002.38
2018-01-25T07:01:49.702Z,1002.39
2018-01-25T07:02:49.674Z,1002.36
2018-01-25T07:03:49.740Z,1002.32
2018-01-25T07:04:49.859Z,1002.32
2018-01-25T07:05:49.599Z,1002.29
2018-01-25T07:06:49.569Z,1002.33
2018-01-25T07:07:49.544Z,1002.34
2018-01-25T07:08:49.517Z,1002.29
2018-01-25T07:09:49.490Z,1002.29
2018-01-25T07:10:49.463Z,1002.34
2018-01-25T07:11:49.643Z,1002.35
2018-01-25T07:12:49.412Z,1002.4
2018-01-25T07:13:49.384Z,1002.47
2018-01-25T07:14:49.359Z,1002.48
2018-01-25T07:15:49.333Z,1002.47
2018-01-25T07:16:49.304Z,1002.49
2018-01-25T07:17:49.280Z,1002.47
2018-01-25T07:18:49.253Z,1002.41
2018-01-25T07:19:49.228Z,1002.46
2018-01-25T07:20:49.200Z,1002.44
2018-01-25T07:21:49.174Z,1002.43
2018-01-25T07:22:49.147Z,1002.32
2018-01-25T07:23:49.121Z,1002.23
2018-01-25T07:24:49.096Z,1002.25
2018-01-25T07:25:49.068Z,1002.25
2018-01-25T07:26:49.042Z,1002.24
2018-01-25T07:27:49.022Z,1002.19
2018-01-25T07:28:48.994Z,1002.2
2018-01-25T07:29:48.964Z,1002.24
2018-01-25T07:30:48.991Z,1002.28
2018-01-25T07:31:48.911Z,1002.26
2018-01-25T07:32:49.161Z,1002.31
2018-01-25T07:33:49.094Z,1002.26
2018-01-25T07:34:48.999Z,1002.28
2018-01-25T07:35:48.805Z,1002.28
2018-01-25T07:36:48.778Z,1002.24
2018-01-25T07:37:48.753Z,1002.21
2018-01-25T07:38:48.726Z,1002.23
2018-01-25T07:39:48.700Z,1002.22
2018-01-25T07:40:48.675Z,1002.27
2018-01-25T07:41:48.648Z,1002.28
2018-01-25T07:42:48.644Z,1002.29
2018-01-25T07:43:48.595Z,1002.31
2018-01-25T07:44:48.569Z,1002.29
2018-01-25T07:45:48.656Z,1002.3
2018-01-25T07:46:48.517Z,1002.28
2018-01-25T07:47:48.493Z,1002.33
2018-01-25T07:48:48.470Z,1002.32
2018-01-25T07:49:48.438Z,1002.35
2018-01-25T07:50:48.413Z,1002.39
2018-01-25T07:51:48.387Z,1002.43
2018-01-25T07:52:48.361Z,1002.42
2018-01-25T07:53:48.334Z,1002.46
2018-01-25T07:54:48.309Z,1002.46
2018-01-25T07:55:48.289Z,1002.44
2018-01-25T07:56:48.257Z,1002.43
2018-01-25T07:57:48.231Z,1002.4
2018-01-25T07:58:48.206Z,1002.36
2018-01-25T07:59:48.180Z,1002.37
2018-01-25T08:00:48.153Z,1002.35
2018-01-25T08:01:48.128Z,1002.37
2018-01-25T08:02:48.102Z,1002.35
2018-01-25T08:03:48.076Z,1002.35
2018-01-25T08:04:48.049Z,1002.3
2018-01-25T08:05:48.025Z,1002.32
2018-01-25T08:06:47.999Z,1002.33
2018-01-25T08:07:47.971Z,1002.34
2018-01-25T08:08:47.946Z,1002.39
2018-01-25T08:09:47.921Z,1002.38
2018-01-25T08:10:47.896Z,1002.37
2018-01-25T08:11:47.869Z,1002.3
2018-01-25T08:12:47.844Z,1002.36
2018-01-25T08:13:47.818Z,1002.36
2018-01-25T08:14:47.793Z,1002.32
2018-01-25T08:15:47.766Z,1002.26
2018-01-25T08:16:47.741Z,1002.22
2018-01-25T08:17:47.814Z,1002.19
2018-01-25T08:18:47.689Z,1002.22
2018-01-25T08:19:47.664Z,1002.25
2018-01-25T08:20:47.643Z,1002.31
2018-01-25T08:21:47.612Z,1002.26
2018-01-25T08:22:47.586Z,1002.29
2018-01-25T08:23:47.562Z,1002.34
2018-01-25T08:24:47.536Z,1002.3
2018-01-25T08:25:47.511Z,1002.36
2018-01-25T08:26:47.485Z,1002.32
2018-01-25T08:27:47.559Z,1002.34
2018-01-25T08:28:47.433Z,1002.31
2018-01-25T08:29:47.408Z,1002.34
2018-01-25T08:30:47.382Z,1002.26
2018-01-25T08:31:47.358Z,1002.33
2018-01-25T08:32:47.334Z,1002.34
2018-01-25T08:33:47.307Z,1002.4
2018-01-25T08:34:47.281Z,1002.42
2018-01-25T08:35:47.256Z,1002.43
2018-01-25T08:36:47.266Z,1002.47
2018-01-25T08:37:47.206Z,1002.53
2018-01-25T08:38:47.180Z,1002.46
2018-01-25T08:39:47.159Z,1002.46
2018-01-25T08:40:47.128Z,1002.37
2018-01-25T08:41:47.103Z,1002.37
2018-01-25T08:42:47.080Z,1002.4
2018-01-25T08:43:47.054Z,1002.38
2018-01-25T08:44:47.030Z,1002.33
2018-01-25T08:45:47.003Z,1002.37
2018-01-25T08:46:46.977Z,1002.39
2018-01-25T08:47:46.955Z,1002.41
2018-01-25T08:48:46.931Z,1002.41
2018-01-25T08:49:46.903Z,1002.4
2018-01-25T08:50:46.876Z,1002.4
2018-01-25T08:51:46.852Z,1002.41
2018-01-25T08:52:46.827Z,1002.4
2018-01-25T08:53:46.802Z,1002.46
2018-01-25T08:54:46.777Z,1002.42
2018-01-25T08:55:46.750Z,1002.41
2018-01-25T08:56:46.725Z,1002.44
2018-01-25T08:57:46.700Z,1002.45
2018-01-25T08:58:46.676Z,1002.44
2018-01-25T08:59:46.650Z,1002.43
2018-01-25T09:00:46.626Z,1002.38
2018-01-25T09:01:46.601Z,1002.39
2018-01-25T09:02:46.616Z,1002.43
2018-01-25T09:03:46.663Z,1002.39
2018-01-25T09:04:46.603Z,1002.44
2018-01-25T09:05:46.506Z,1002.5
2018-01-25T09:06:46.474Z,1002.42
2018-01-25T09:07:46.451Z,1002.49
2018-01-25T09:08:46.630Z,1002.55
2018-01-25T09:09:46.401Z,1002.52
2018-01-25T09:10:46.375Z,1002.46
2018-01-25T09:11:46.350Z,1002.49
2018-01-25T09:12:46.326Z,1002.43
2018-01-25T09:13:46.300Z,1002.4
2018-01-25T09:14:46.278Z,1002.43
2018-01-25T09:15:46.250Z,1002.41
2018-01-25T09:16:46.226Z,1002.44
2018-01-25T09:17:46.202Z,1002.48
2018-01-25T09:18:46.494Z,1002.46
2018-01-25T09:19:46.156Z,1002.41
2018-01-25T09:20:46.129Z,1002.41
2018-01-25T09:21:46.103Z,1002.4
2018-01-25T09:22:46.078Z,1002.43
2018-01-25T09:23:46.054Z,1002.4
2018-01-25T09:24:46.030Z,1002.4
2018-01-25T09:25:46.004Z,1002.42
2018-01-25T09:26:45.981Z,1002.4
2018-01-25T09:27:45.957Z,1002.46
2018-01-25T09:28:45.930Z,1002.45
2018-01-25T09:29:45.907Z,1002.48
2018-01-25T09:30:45.882Z,1002.46
2018-01-25T09:31:45.856Z,1002.45
2018-01-25T09:32:45.832Z,1002.47
2018-01-25T09:33:45.809Z,1002.48
2018-01-25T09:34:45.783Z,1002.48
2018-01-25T09:35:45.758Z,1002.46
2018-01-25T09:36:45.734Z,1002.45
2018-01-25T09:37:45.711Z,1002.48
2018-01-25T09:38:45.686Z,1002.49
2018-01-25T09:39:45.661Z,1002.48
2018-01-25T09:40:45.639Z,1002.5
2018-01-25T09:41:45.612Z,1002.5
2018-01-25T09:42:45.588Z,1002.43
2018-01-25T09:43:45.563Z,1002.52
2018-01-25T09:44:45.539Z,1002.52
2018-01-25T09:45:45.514Z,1002.54
2018-01-25T09:46:45.490Z,1002.57
2018-01-25T09:47:45.466Z,1002.54
2018-01-25T09:48:45.441Z,1002.49
2018-01-25T09:49:45.419Z,1002.53
2018-01-25T09:50:45.391Z,1002.46
2018-01-25T09:51:45.367Z,1002.53
2018-01-25T09:52:45.344Z,1002.57
2018-01-25T09:53:45.318Z,1002.53
2018-01-25T09:54:45.295Z,1002.52
2018-01-25T09:55:45.271Z,1002.5
2018-01-25T09:56:45.247Z,1002.58
2018-01-25T09:57:45.220Z,1002.51
2018-01-25T09:58:45.199Z,1002.57
2018-01-25T09:59:45.191Z,1002.49
2018-01-25T10:00:45.150Z,1002.5
2018-01-25T10:01:45.125Z,1002.5
2018-01-25T10:02:45.198Z,1002.49
2018-01-25T10:03:45.078Z,1002.49
2018-01-25T10:04:45.053Z,1002.52
2018-01-25T10:05:45.028Z,1002.54
2018-01-25T10:06:45.010Z,1002.64
2018-01-25T10:07:44.981Z,1002.7
2018-01-25T10:08:44.959Z,1002.72
2018-01-25T10:09:44.934Z,1002.72
2018-01-25T10:10:44.909Z,1002.7
2018-01-25T10:11:44.885Z,1002.69
2018-01-25T10:12:44.860Z,1002.66
2018-01-25T10:13:44.838Z,1002.58
2018-01-25T10:14:44.815Z,1002.65
2018-01-25T10:15:44.791Z,1002.6
2018-01-25T10:16:44.766Z,1002.57
2018-01-25T10:17:44.907Z,1002.56
2018-01-25T10:18:44.724Z,1002.53
2018-01-25T10:19:44.695Z,1002.54
2018-01-25T10:20:44.671Z,1002.58
2018-01-25T10:21:44.648Z,1002.55
2018-01-25T10:22:44.624Z,1002.57
2018-01-25T10:23:44.603Z,1002.58
2018-01-25T10:24:44.579Z,1002.61
2018-01-25T10:25:44.554Z,1002.59
2018-01-25T10:26:44.529Z,1002.59
2018-01-25T10:27:44.507Z,1002.57
2018-01-25T10:28:44.484Z,1002.59
2018-01-25T10:29:44.462Z,1002.59
2018-01-25T10:30:44.436Z,1002.61
2018-01-25T10:31:44.412Z,1002.58
2018-01-25T10:32:44.446Z,1002.61
2018-01-25T10:33:44.366Z,1002.6
2018-01-25T10:34:44.343Z,1002.59
2018-01-25T10:35:44.319Z,1002.62
2018-01-25T10:36:44.296Z,1002.58
2018-01-25T10:37:44.273Z,1002.61
2018-01-25T10:38:44.248Z,1002.59
2018-01-25T10:39:44.225Z,1002.56
2018-01-25T10:40:44.205Z,1002.54
2018-01-25T10:41:44.179Z,1002.61
2018-01-25T10:42:44.156Z,1002.5
2018-01-25T10:43:44.133Z,1002.5
2018-01-25T10:44:44.112Z,1002.51
2018-01-25T10:45:44.086Z,1002.54
2018-01-25T10:46:44.063Z,1002.47
2018-01-25T10:47:44.043Z,1002.48
2018-01-25T10:48:44.016Z,1002.51
2018-01-25T10:49:43.997Z,1002.43
2018-01-25T10:50:43.970Z,1002.42
2018-01-25T10:51:43.948Z,1002.38
2018-01-25T10:52:44.198Z,1002.36
2018-01-25T10:53:43.902Z,1002.32
2018-01-25T10:54:44.246Z,1002.34
2018-01-25T10:55:43.857Z,1002.27
2018-01-25T10:56:43.835Z,1002.32
2018-01-25T10:57:43.811Z,1002.26
2018-01-25T10:58:43.791Z,1002.25
2018-01-25T10:59:43.819Z,1002.23
2018-01-25T11:00:43.744Z,1002.19
2018-01-25T11:01:43.724Z,1002.2
2018-01-25T11:02:43.700Z,1002.2
2018-01-25T11:03:43.675Z,1002.15
2018-01-25T11:04:43.653Z,1002.17
2018-01-25T11:05:43.639Z,1002.2
2018-01-25T11:06:43.608Z,1002.19
2018-01-25T11:07:43.584Z,1002.15
2018-01-25T11:08:43.562Z,1002.18
2018-01-25T11:09:43.541Z,1002.14
2018-01-25T11:10:43.517Z,1002.13
2018-01-25T11:11:43.496Z,1002.09
2018-01-25T11:12:43.473Z,1002.15
2018-01-25T11:13:43.450Z,1002.12
2018-01-25T11:14:43.427Z,1002.04
2018-01-25T11:15:43.404Z,1002.07
2018-01-25T11:16:43.383Z,1002.03
2018-01-25T11:17:43.360Z,1002.05
2018-01-25T11:18:43.340Z,1002.09
2018-01-25T11:19:43.432Z,1002.06
2018-01-25T11:20:43.294Z,1002.07
2018-01-25T11:21:43.272Z,1002.04
2018-01-25T11:22:43.250Z,1002.03
2018-01-25T11:23:43.229Z,1002.05
2018-01-25T11:24:43.207Z,1002.09
2018-01-25T11:25:43.183Z,1002.1
2018-01-25T11:26:43.165Z,1002.07
2018-01-25T11:27:43.139Z,1002.06
2018-01-25T11:28:43.118Z,1002
2018-01-25T11:29:43.095Z,1002
2018-01-25T11:30:43.074Z,1001.93
2018-01-25T11:31:43.052Z,1002.01
2018-01-25T11:32:43.030Z,1002.02
2018-01-25T11:33:43.008Z,1002
2018-01-25T11:34:42.985Z,1001.98
2018-01-25T11:35:42.964Z,1001.96
2018-01-25T11:36:42.943Z,1002.01
2018-01-25T11:37:42.921Z,1001.99
2018-01-25T11:38:42.899Z,1002.03
2018-01-25T11:39:42.875Z,1002.02
2018-01-25T11:40:42.855Z,1002
2018-01-25T11:41:42.834Z,1002.03
2018-01-25T11:42:42.812Z,1002.01
2018-01-25T11:43:42.789Z,1002.05
2018-01-25T11:44:42.767Z,1002
2018-01-25T11:45:42.747Z,1001.98
2018-01-25T11:46:42.725Z,1002.04
2018-01-25T11:47:42.702Z,1001.99
2018-01-25T11:48:42.681Z,1002.03
2018-01-25T11:49:42.658Z,1001.97
2018-01-25T11:50:42.637Z,1002.02
2018-01-25T11:51:42.615Z,1002.02
2018-01-25T11:52:42.649Z,1002.02
2018-01-25T11:53:42.571Z,1001.97
2018-01-25T11:54:42.550Z,1001.95
2018-01-25T11:55:42.528Z,1001.96
2018-01-25T11:56:42.506Z,1001.96
2018-01-25T11:57:42.484Z,1001.92
2018-01-25T11:58:42.462Z,1001.86
2018-01-25T11:59:42.441Z,1001.82
2018-01-25T12:00:42.419Z,1001.77
2018-01-25T12:01:42.397Z,1001.79
2018-01-25T12:02:42.375Z,1001.74
2018-01-25T12:03:42.354Z,1001.67
2018-01-25T12:04:42.366Z,1001.58
2018-01-25T12:05:42.310Z,1001.56
2018-01-25T12:06:42.288Z,1001.58
2018-01-25T12:07:42.265Z,1001.67
2018-01-25T12:08:42.245Z,1001.72
2018-01-25T12:09:42.221Z,1001.82